createdAt,value
2018-05-17T00:02:18.054Z,23.87
2018-05-17T00:04:45.706Z,12.23
2018-05-17T00:07:13.373Z,18.60
2018-05-17T00:09:41.026Z,22.33
2018-05-17T00:12:08.774Z,14.17
2018-05-17T00:14:36.464Z,13.10
2018-05-17T00:17:04.125Z,23.00
2018-05-17T00:19:31.761Z,39.90
2018-05-17T00:21:59.519Z,19.03
2018-05-17T00:24:27.292Z,14.40
2018-05-17T00:26:55.010Z,18.80
2018-05-17T00:29:22.659Z,16.60
2018-05-17T00:31:50.332Z,22.63
2018-05-17T00:34:18.014Z,15.20
2018-05-17T00:36:46.068Z,24.23
2018-05-17T00:39:13.725Z,15.83
2018-05-17T00:41:41.455Z,20.40
2018-05-17T00:44:09.159Z,21.83
2018-05-17T00:46:36.851Z,14.77
2018-05-17T00:49:04.933Z,18.57
2018-05-17T00:51:32.681Z,16.93
2018-05-17T00:54:00.734Z,15.80
2018-05-17T00:56:28.880Z,15.47
2018-05-17T00:58:56.499Z,16.13
2018-05-17T01:01:24.496Z,19.93
2018-05-17T01:03:52.213Z,20.40
2018-05-17T01:06:20.265Z,18.77
2018-05-17T01:08:47.970Z,16.33
2018-05-17T01:11:15.622Z,17.50
2018-05-17T01:13:43.282Z,16.20
2018-05-17T01:16:11.149Z,14.30
2018-05-17T01:18:39.347Z,16.73
2018-05-17T01:21:07.023Z,15.60
2018-05-17T01:23:35.443Z,20.10
2018-05-17T01:26:03.540Z,16.23
2018-05-17T01:28:31.199Z,37.73
2018-05-17T01:30:58.866Z,23.60
2018-05-17T01:33:26.520Z,16.00
2018-05-17T01:35:55.553Z,21.20
2018-05-17T01:38:26.969Z,15.77
2018-05-17T01:40:55.041Z,17.10
2018-05-17T01:43:22.697Z,18.53
2018-05-17T01:45:50.750Z,17.40
2018-05-17T01:48:18.404Z,22.03
2018-05-17T01:50:46.101Z,17.90
2018-05-17T01:53:14.166Z,24.60
2018-05-17T01:55:42.238Z,17.23
2018-05-17T01:58:10.369Z,18.10
2018-05-17T02:00:38.062Z,26.63
2018-05-17T02:03:06.123Z,20.23
2018-05-17T02:05:33.781Z,18.07
2018-05-17T02:08:01.469Z,26.43
2018-05-17T02:10:29.541Z,27.70
2018-05-17T02:12:57.595Z,20.50
2018-05-17T02:15:25.277Z,20.73
2018-05-17T02:17:53.484Z,19.80
2018-05-17T02:20:21.152Z,20.83
2018-05-17T02:22:48.876Z,29.83
2018-05-17T02:25:16.942Z,19.53
2018-05-17T02:27:45.054Z,17.80
2018-05-17T02:30:12.922Z,19.37
2018-05-17T02:32:40.658Z,21.73
2018-05-17T02:35:08.318Z,22.70
2018-05-17T02:37:36.388Z,20.40
2018-05-17T02:40:04.449Z,22.00
2018-05-17T02:42:32.498Z,20.80
2018-05-17T02:45:00.189Z,26.53
2018-05-17T02:47:28.268Z,25.40
2018-05-17T02:49:56.333Z,22.60
2018-05-17T02:52:24.051Z,23.07
2018-05-17T02:54:51.701Z,23.63
2018-05-17T02:57:19.375Z,23.50
2018-05-17T02:59:47.104Z,23.20
2018-05-17T03:02:14.793Z,23.50
2018-05-17T03:04:42.443Z,25.40
2018-05-17T03:07:10.104Z,28.43
2018-05-17T03:09:37.847Z,23.90
2018-05-17T03:12:05.494Z,28.23
2018-05-17T03:14:33.642Z,27.07
2018-05-17T03:17:01.303Z,35.70
2018-05-17T03:19:28.965Z,23.80
2018-05-17T03:21:56.668Z,26.10
2018-05-17T03:24:24.364Z,26.00
2018-05-17T03:26:52.074Z,30.33
2018-05-17T03:29:20.118Z,26.10
2018-05-17T03:31:47.783Z,31.57
2018-05-17T03:34:15.431Z,25.13
2018-05-17T03:36:43.110Z,35.87
2018-05-17T03:39:10.753Z,34.97
2018-05-17T03:41:38.431Z,26.90
2018-05-17T03:44:06.093Z,26.87
2018-05-17T03:46:33.758Z,30.53
2018-05-17T03:49:01.481Z,29.23
2018-05-17T03:51:29.254Z,26.10
2018-05-17T03:53:57.349Z,31.93
2018-05-17T03:56:25.110Z,32.37
2018-05-17T03:58:52.756Z,27.63
2018-05-17T04:01:33.928Z,27.50
2018-05-17T04:04:13.465Z,25.07
2018-05-17T04:06:41.143Z,25.07
2018-05-17T04:09:08.819Z,26.30
2018-05-17T04:11:36.525Z,28.47
2018-05-17T04:14:04.594Z,23.20
2018-05-17T04:16:32.670Z,27.33
2018-05-17T04:19:00.739Z,24.20
2018-05-17T04:21:29.800Z,28.37
2018-05-17T04:23:57.525Z,25.77
2018-05-17T04:26:25.224Z,20.60
2018-05-17T04:28:53.429Z,19.03
2018-05-17T04:31:21.954Z,23.73
2018-05-17T04:33:49.640Z,20.33
2018-05-17T04:36:17.371Z,23.30
2018-05-17T04:38:45.203Z,17.23
2018-05-17T04:41:14.521Z,16.73
2018-05-17T04:43:42.220Z,17.57
2018-05-17T04:46:09.922Z,16.10
2018-05-17T04:48:37.574Z,15.80
2018-05-17T04:51:05.251Z,16.17
2018-05-17T04:53:33.310Z,15.17
2018-05-17T04:56:01.034Z,14.47
2018-05-17T04:58:28.731Z,12.03
2018-05-17T05:00:56.377Z,13.43
2018-05-17T05:03:24.075Z,13.00
2018-05-17T05:05:52.285Z,12.23
2018-05-17T05:08:19.979Z,17.33
2018-05-17T05:10:47.648Z,25.73
2018-05-17T05:13:15.317Z,18.23
2018-05-17T05:15:43.413Z,13.17
2018-05-17T05:18:11.518Z,21.63
2018-05-17T05:20:39.185Z,13.27
2018-05-17T05:23:06.842Z,12.70
2018-05-17T05:25:34.577Z,11.50
2018-05-17T05:28:02.268Z,15.30
2018-05-17T05:30:30.043Z,12.90
2018-05-17T05:32:57.729Z,14.63
2018-05-17T05:35:25.447Z,12.37
2018-05-17T05:37:53.098Z,11.30
2018-05-17T05:40:20.894Z,14.47
2018-05-17T05:42:48.663Z,12.33
2018-05-17T05:45:16.329Z,16.73
2018-05-17T05:47:43.981Z,18.00
2018-05-17T05:50:11.686Z,11.20
2018-05-17T05:52:40.186Z,18.03
2018-05-17T05:55:08.640Z,14.87
2018-05-17T05:57:36.333Z,18.97
2018-05-17T06:00:04.412Z,13.60
2018-05-17T06:02:32.086Z,12.73
2018-05-17T06:05:00.037Z,17.90
2018-05-17T06:07:28.104Z,11.43
2018-05-17T06:09:55.768Z,12.90
2018-05-17T06:12:23.857Z,10.20
2018-05-17T06:14:51.592Z,11.30
2018-05-17T06:17:19.476Z,9.43
2018-05-17T06:19:47.094Z,11.00
2018-05-17T06:22:14.977Z,8.20
2018-05-17T06:24:42.804Z,9.90
2018-05-17T06:27:10.494Z,7.77
2018-05-17T06:29:38.222Z,7.80
2018-05-17T06:32:05.983Z,15.63
2018-05-17T06:34:33.638Z,13.17
2018-05-17T06:37:01.310Z,8.73
2018-05-17T06:39:29.099Z,10.00
2018-05-17T06:41:56.806Z,11.10
2018-05-17T06:44:24.885Z,7.40
2018-05-17T06:46:52.951Z,7.93
2018-05-17T06:49:21.927Z,8.37
2018-05-17T06:51:50.221Z,7.27
2018-05-17T06:54:18.323Z,8.83
2018-05-17T06:56:46.008Z,14.33
2018-05-17T06:59:13.666Z,8.00
2018-05-17T07:01:42.546Z,7.47
2018-05-17T07:04:10.265Z,8.03
2018-05-17T07:06:37.951Z,9.57
2018-05-17T07:09:05.672Z,7.43
2018-05-17T07:11:33.336Z,8.00
2018-05-17T07:14:00.999Z,16.10
2018-05-17T07:16:28.701Z,8.43
2018-05-17T07:18:56.366Z,8.30
2018-05-17T07:21:24.023Z,7.30
2018-05-17T07:23:51.679Z,7.17
2018-05-17T07:26:19.772Z,6.80
2018-05-17T07:28:47.520Z,8.70
2018-05-17T07:31:15.219Z,10.23
2018-05-17T07:33:43.240Z,7.33
2018-05-17T07:36:11.184Z,9.00
2018-05-17T07:38:38.837Z,6.40
2018-05-17T07:41:06.512Z,19.43
2018-05-17T07:43:34.209Z,8.80
2018-05-17T07:46:01.905Z,9.40
2018-05-17T07:48:29.572Z,8.27
2018-05-17T07:50:57.231Z,16.13
2018-05-17T07:53:24.958Z,6.80
2018-05-17T07:55:53.009Z,8.47
2018-05-17T07:58:20.658Z,12.47
2018-05-17T08:00:48.333Z,19.13
2018-05-17T08:03:16.399Z,28.33
2018-05-17T08:05:44.141Z,9.20
2018-05-17T08:08:11.788Z,8.40
2018-05-17T08:10:39.500Z,10.23
2018-05-17T08:13:07.174Z,8.30
2018-05-17T08:15:35.322Z,14.87
2018-05-17T08:18:03.097Z,19.17
2018-05-17T08:20:30.709Z,7.10
2018-05-17T08:22:58.339Z,9.53
2018-05-17T08:25:26.096Z,11.57
2018-05-17T08:27:54.131Z,19.03
2018-05-17T08:30:21.949Z,11.00
2018-05-17T08:32:49.726Z,15.63
2018-05-17T08:35:17.400Z,10.37
2018-05-17T08:37:45.130Z,12.07
2018-05-17T08:40:12.782Z,6.50
2018-05-17T08:42:40.961Z,10.53
2018-05-17T08:45:08.626Z,8.67
2018-05-17T08:47:36.331Z,10.40
2018-05-17T08:50:04.008Z,7.77
2018-05-17T08:52:31.675Z,9.23
2018-05-17T08:54:59.398Z,10.33
2018-05-17T08:57:27.518Z,7.57
2018-05-17T08:59:56.102Z,26.53
2018-05-17T09:02:23.767Z,9.87
2018-05-17T09:04:51.426Z,17.87
2018-05-17T09:07:19.076Z,11.93
2018-05-17T09:09:46.848Z,15.97
2018-05-17T09:12:14.518Z,13.87
2018-05-17T09:14:42.166Z,9.83
2018-05-17T09:17:09.840Z,12.70
2018-05-17T09:19:37.530Z,10.30
2018-05-17T09:22:05.601Z,14.80
2018-05-17T09:24:33.264Z,18.40
2018-05-17T09:27:00.927Z,39.67
2018-05-17T09:29:28.573Z,15.60
2018-05-17T09:31:56.252Z,20.17
2018-05-17T09:34:24.021Z,21.03
2018-05-17T09:36:51.780Z,14.73
2018-05-17T09:39:19.374Z,16.40
2018-05-17T09:41:47.136Z,21.40
2018-05-17T09:44:14.803Z,13.50
2018-05-17T09:46:42.531Z,12.90
2018-05-17T09:49:10.598Z,19.20
2018-05-17T09:51:38.265Z,19.00
2018-05-17T09:54:06.334Z,17.57
2018-05-17T09:56:34.437Z,20.70
2018-05-17T09:59:02.269Z,23.90
2018-05-17T10:01:30.097Z,15.13
2018-05-17T10:03:57.771Z,20.33
2018-05-17T10:06:25.421Z,19.40
2018-05-17T10:08:53.119Z,18.57
2018-05-17T10:11:20.787Z,20.87
2018-05-17T10:13:48.870Z,28.37
2018-05-17T10:16:16.521Z,21.73
2018-05-17T10:18:44.171Z,19.67
2018-05-17T10:21:12.272Z,27.30
2018-05-17T10:23:39.985Z,20.87
2018-05-17T10:26:07.690Z,19.50
2018-05-17T10:28:35.342Z,19.40
2018-05-17T10:31:02.986Z,17.67
2018-05-17T10:33:30.722Z,21.07
2018-05-17T10:35:58.388Z,23.30
2018-05-17T10:38:26.045Z,18.33
2018-05-17T10:40:53.703Z,26.33
2018-05-17T10:43:21.400Z,17.77
2018-05-17T10:45:49.642Z,16.47
2018-05-17T10:48:17.328Z,17.53
2018-05-17T10:50:45.080Z,15.40
2018-05-17T10:53:12.916Z,27.20
2018-05-17T10:55:40.566Z,22.07
2018-05-17T10:58:08.272Z,17.43
2018-05-17T11:00:35.948Z,17.30
2018-05-17T11:03:03.601Z,14.47
2018-05-17T11:05:31.294Z,23.17
2018-05-17T11:07:59.379Z,20.93
2018-05-17T11:10:27.049Z,16.90
2018-05-17T11:12:54.810Z,14.13
2018-05-17T11:15:22.573Z,13.83
2018-05-17T11:17:50.220Z,17.37
2018-05-17T11:20:18.286Z,23.80
2018-05-17T11:22:46.424Z,25.50
2018-05-17T11:25:14.109Z,21.33
2018-05-17T11:27:41.765Z,28.63
2018-05-17T11:30:09.423Z,18.93
2018-05-17T11:32:37.109Z,28.23
2018-05-17T11:35:05.177Z,33.70
2018-05-17T11:37:32.940Z,20.33
2018-05-17T11:40:01.023Z,26.40
2018-05-17T11:42:29.098Z,28.70
2018-05-17T11:44:57.169Z,27.17
2018-05-17T11:47:24.963Z,18.47
2018-05-17T11:49:52.595Z,19.40
2018-05-17T11:52:20.317Z,28.17
2018-05-17T11:54:47.980Z,22.47
2018-05-17T11:57:16.533Z,19.53
2018-05-17T11:59:44.257Z,32.23
2018-05-17T12:02:12.175Z,27.43
2018-05-17T12:04:39.825Z,24.57
2018-05-17T12:07:07.565Z,23.83
2018-05-17T12:09:35.621Z,22.30
2018-05-17T12:12:03.685Z,29.37
2018-05-17T12:14:31.769Z,20.37
2018-05-17T12:16:59.429Z,19.23
2018-05-17T12:19:27.502Z,28.93
2018-05-17T12:21:55.580Z,23.20
2018-05-17T12:24:23.643Z,31.43
2018-05-17T12:26:51.297Z,31.93
2018-05-17T12:29:18.964Z,25.10
2018-05-17T12:31:47.143Z,22.03
2018-05-17T12:34:15.258Z,20.17
2018-05-17T12:36:42.979Z,22.93
2018-05-17T12:39:11.033Z,21.20
2018-05-17T12:41:38.812Z,28.77
2018-05-17T12:44:06.888Z,23.57
2018-05-17T12:46:34.928Z,21.83
2018-05-17T12:49:02.655Z,24.00
2018-05-17T12:51:30.381Z,27.90
2018-05-17T12:53:58.448Z,30.80
2018-05-17T12:56:26.517Z,20.17
2018-05-17T12:58:54.724Z,18.80
2018-05-17T13:01:22.476Z,22.83
2018-05-17T13:03:50.548Z,28.27
2018-05-17T13:06:18.646Z,28.37
2018-05-17T13:08:46.368Z,36.37
2018-05-17T13:11:14.473Z,19.00
2018-05-17T13:13:42.104Z,27.83
2018-05-17T13:16:10.158Z,23.53
2018-05-17T13:18:37.817Z,21.83
2018-05-17T13:21:05.496Z,35.10
2018-05-17T13:23:33.566Z,21.03
2018-05-17T13:26:01.240Z,16.37
2018-05-17T13:28:29.339Z,32.40
2018-05-17T13:30:57.044Z,19.23
2018-05-17T13:33:24.795Z,24.97
2018-05-17T13:35:52.458Z,22.67
2018-05-17T13:38:20.164Z,19.30
2018-05-17T13:40:47.831Z,35.57
2018-05-17T13:43:15.886Z,28.17
2018-05-17T13:45:43.564Z,27.00
2018-05-17T13:48:11.620Z,29.70
2018-05-17T13:50:39.735Z,21.00
2018-05-17T13:53:07.366Z,21.27
2018-05-17T13:55:35.548Z,26.10
2018-05-17T13:58:03.159Z,21.47
2018-05-17T14:00:30.850Z,23.00
2018-05-17T14:02:58.939Z,24.20
2018-05-17T14:05:27.105Z,25.13
2018-05-17T14:07:55.278Z,19.67
2018-05-17T14:10:23.341Z,31.17
2018-05-17T14:12:51.432Z,25.23
2018-05-17T14:15:19.134Z,18.40
2018-05-17T14:17:46.800Z,23.93
2018-05-17T14:20:14.456Z,22.20
2018-05-17T14:22:42.153Z,30.97
2018-05-17T14:25:09.882Z,21.43
2018-05-17T14:27:37.535Z,25.07
2018-05-17T14:30:05.218Z,23.20
2018-05-17T14:32:32.887Z,26.63
2018-05-17T14:35:00.643Z,26.23
2018-05-17T14:37:28.343Z,19.97
2018-05-17T14:39:56.448Z,26.47
2018-05-17T14:42:24.092Z,27.13
2018-05-17T14:44:52.154Z,23.13
2018-05-17T14:47:20.317Z,34.60
2018-05-17T14:49:48.393Z,22.30
2018-05-17T14:52:16.071Z,19.47
2018-05-17T14:54:43.774Z,24.80
2018-05-17T14:57:11.586Z,23.53
2018-05-17T14:59:39.706Z,18.70
2018-05-17T15:02:07.501Z,21.00
2018-05-17T15:04:35.237Z,37.30
2018-05-17T15:07:03.084Z,24.30
2018-05-17T15:09:30.761Z,25.23
2018-05-17T15:11:58.491Z,37.93
2018-05-17T15:14:26.193Z,20.87
2018-05-17T15:16:53.866Z,29.10
2018-05-17T15:19:21.544Z,29.73
2018-05-17T15:21:49.234Z,24.93
2018-05-17T15:24:16.885Z,25.67
2018-05-17T15:26:44.586Z,26.37
2018-05-17T15:29:12.734Z,21.03
2018-05-17T15:31:40.793Z,21.50
2018-05-17T15:34:08.872Z,17.00
2018-05-17T15:36:36.520Z,26.07
2018-05-17T15:39:04.157Z,23.93
2018-05-17T15:41:31.873Z,18.53
2018-05-17T15:44:00.243Z,22.00
2018-05-17T15:46:28.307Z,24.00
2018-05-17T15:48:56.419Z,26.50
2018-05-17T15:51:24.151Z,20.80
2018-05-17T15:53:52.264Z,37.17
2018-05-17T15:56:19.997Z,28.80
2018-05-17T15:58:48.190Z,20.67
2018-05-17T16:01:15.920Z,38.77
2018-05-17T16:03:43.625Z,34.23
2018-05-17T16:06:11.292Z,27.93
2018-05-17T16:08:38.934Z,21.73
2018-05-17T16:11:06.583Z,19.00
2018-05-17T16:13:34.677Z,32.10
2018-05-17T16:16:02.371Z,26.60
2018-05-17T16:18:30.035Z,32.00
2018-05-17T16:20:58.140Z,29.90
2018-05-17T16:23:26.188Z,29.10
2018-05-17T16:25:53.897Z,25.40
2018-05-17T16:28:21.538Z,36.57
2018-05-17T16:30:49.617Z,32.83
2018-05-17T16:33:17.376Z,40.67
2018-05-17T16:35:45.410Z,19.90
2018-05-17T16:38:13.116Z,28.70
2018-05-17T16:40:41.179Z,29.30
2018-05-17T16:43:09.233Z,24.60
2018-05-17T16:45:36.882Z,22.37
2018-05-17T16:48:04.530Z,27.23
2018-05-17T16:50:32.235Z,39.33
2018-05-17T16:53:00.423Z,29.00
2018-05-17T16:55:28.004Z,31.90
2018-05-17T16:57:55.660Z,33.90
2018-05-17T17:00:23.422Z,31.60
2018-05-17T17:02:51.082Z,28.80
2018-05-17T17:05:18.759Z,31.63
2018-05-17T17:07:46.412Z,41.63
2018-05-17T17:10:14.087Z,34.40
2018-05-17T17:12:41.735Z,26.13
2018-05-17T17:15:09.551Z,29.47
2018-05-17T17:17:37.558Z,26.17
2018-05-17T17:20:06.203Z,33.27
2018-05-17T17:22:34.708Z,33.80
2018-05-17T17:25:02.603Z,29.73
2018-05-17T17:27:30.717Z,35.43
2018-05-17T17:29:58.366Z,35.43
2018-05-17T17:32:26.348Z,45.13
2018-05-17T17:34:54.337Z,32.27
2018-05-17T17:37:22.036Z,32.90
2018-05-17T17:39:49.741Z,37.13
2018-05-17T17:42:17.455Z,55.00
2018-05-17T17:44:45.178Z,42.43
2018-05-17T17:47:12.962Z,24.57
2018-05-17T17:49:41.069Z,40.83
2018-05-17T17:52:08.731Z,37.87
2018-05-17T17:54:36.401Z,25.23
2018-05-17T17:57:04.183Z,30.77
2018-05-17T17:59:32.003Z,31.67
2018-05-17T18:02:00.073Z,43.10
2018-05-17T18:04:28.136Z,38.13
2018-05-17T18:06:56.202Z,38.13
2018-05-17T18:09:24.038Z,27.00
2018-05-17T18:11:51.698Z,28.93
2018-05-17T18:14:19.468Z,30.83
2018-05-17T18:16:47.121Z,39.10
2018-05-17T18:19:14.784Z,37.20
2018-05-17T18:21:42.433Z,31.97
2018-05-17T18:24:10.154Z,40.20
2018-05-17T18:26:38.217Z,24.40
2018-05-17T18:29:05.894Z,32.10
2018-05-17T18:31:33.946Z,32.97
2018-05-17T18:34:01.803Z,35.30
2018-05-17T18:36:29.524Z,30.63
2018-05-17T18:38:57.197Z,25.00
2018-05-17T18:41:24.866Z,43.93
2018-05-17T18:43:52.509Z,48.50
2018-05-17T18:46:20.174Z,40.97
2018-05-17T18:48:47.920Z,42.03
2018-05-17T18:51:15.709Z,34.03
2018-05-17T18:53:43.344Z,28.10
2018-05-17T18:56:11.016Z,34.17
2018-05-17T18:58:38.759Z,53.10
2018-05-17T19:01:06.819Z,36.80
2018-05-17T19:03:34.472Z,50.23
2018-05-17T19:06:02.225Z,29.60
2018-05-17T19:08:29.952Z,38.40
2018-05-17T19:10:57.628Z,41.33
2018-05-17T19:13:25.374Z,36.37
2018-05-17T19:15:53.073Z,42.73
2018-05-17T19:18:20.727Z,40.73
2018-05-17T19:20:48.393Z,45.70
2018-05-17T19:23:16.057Z,31.93
2018-05-17T19:25:43.885Z,31.03
2018-05-17T19:28:11.625Z,38.30
2018-05-17T19:30:39.679Z,34.13
2018-05-17T19:33:07.335Z,38.50
2018-05-17T19:35:35.073Z,31.07
2018-05-17T19:38:02.763Z,32.77
2018-05-17T19:40:30.534Z,35.07
2018-05-17T19:42:58.185Z,30.20
2018-05-17T19:45:25.953Z,35.90
2018-05-17T19:47:53.552Z,32.43
2018-05-17T19:50:21.220Z,34.60
2018-05-17T19:52:48.991Z,47.90
2018-05-17T19:55:16.962Z,37.63
2018-05-17T19:57:44.628Z,45.53
2018-05-17T20:00:12.369Z,50.87
2018-05-17T20:02:40.818Z,31.30
2018-05-17T20:07:43.294Z,31.73
2018-05-17T20:10:10.960Z,35.43
2018-05-17T20:12:38.690Z,44.20
2018-05-17T20:15:06.445Z,33.63
2018-05-17T20:17:34.116Z,38.90
2018-05-17T20:20:01.823Z,34.47
2018-05-17T20:22:29.516Z,41.37
2018-05-17T20:24:57.570Z,40.47
2018-05-17T20:27:25.258Z,42.80
2018-05-17T20:29:53.015Z,32.50
2018-05-17T20:32:21.064Z,35.43
2018-05-17T20:34:48.721Z,42.53
2018-05-17T20:37:16.380Z,33.60
2018-05-17T20:39:44.058Z,54.00
2018-05-17T20:42:12.115Z,42.10
2018-05-17T20:44:39.808Z,47.17
2018-05-17T20:47:07.480Z,35.80
2018-05-17T20:49:35.135Z,33.03
2018-05-17T20:52:02.888Z,28.23
2018-05-17T20:54:30.929Z,38.07
2018-05-17T20:56:58.622Z,36.13
2018-05-17T20:59:26.674Z,28.43
2018-05-17T21:01:54.340Z,35.63
2018-05-17T21:04:22.025Z,33.00
2018-05-17T21:06:50.117Z,29.97
2018-05-17T21:09:17.797Z,34.07
2018-05-17T21:11:45.482Z,32.13
2018-05-17T21:14:13.165Z,28.87
2018-05-17T21:16:40.932Z,41.33
2018-05-17T21:19:10.159Z,32.43
2018-05-17T21:21:37.882Z,28.50
2018-05-17T21:24:05.625Z,26.03
2018-05-17T21:26:33.291Z,34.70
2018-05-17T21:29:00.953Z,33.27
2018-05-17T21:31:28.664Z,36.80
2018-05-17T21:33:56.739Z,44.87
2018-05-17T21:36:24.416Z,34.43
2018-05-17T21:38:52.165Z,32.00
2018-05-17T21:41:20.284Z,40.97
2018-05-17T21:43:47.946Z,44.73
2018-05-17T21:46:15.658Z,31.73
2018-05-17T21:48:43.290Z,38.60
2018-05-17T21:51:10.958Z,44.07
2018-05-17T21:53:38.642Z,46.27
2018-05-17T21:56:06.689Z,35.43
2018-05-17T21:58:34.404Z,38.80
2018-05-17T22:01:02.098Z,34.63
2018-05-17T22:03:29.759Z,35.27
2018-05-17T22:05:57.429Z,47.87
2018-05-17T22:08:25.092Z,61.90
2018-05-17T22:10:52.887Z,87.00
2018-05-17T22:13:20.482Z,49.13
2018-05-17T22:15:48.155Z,51.80
2018-05-17T22:18:15.870Z,53.37
2018-05-17T22:20:43.662Z,53.47
2018-05-17T22:23:11.437Z,42.97
2018-05-17T22:25:39.144Z,49.23
2018-05-17T22:28:06.804Z,30.80
2018-05-17T22:30:34.479Z,41.90
2018-05-17T22:33:02.161Z,55.73
2018-05-17T22:35:29.976Z,47.13
2018-05-17T22:37:57.700Z,45.20
2018-05-17T22:40:25.361Z,57.40
2018-05-17T22:42:53.069Z,40.33
2018-05-17T22:45:20.754Z,54.83
2018-05-17T22:47:48.431Z,45.63
2018-05-17T22:50:16.475Z,46.47
2018-05-17T22:52:44.125Z,62.70
2018-05-17T22:55:11.793Z,42.97
2018-05-17T22:57:51.378Z,49.50
2018-05-17T23:00:19.145Z,46.77
2018-05-17T23:02:47.190Z,52.07
2018-05-17T23:05:14.896Z,49.40
2018-05-17T23:07:42.626Z,43.40
2018-05-17T23:10:10.722Z,46.57
2018-05-17T23:12:38.461Z,50.67
2018-05-17T23:15:06.112Z,39.37
2018-05-17T23:17:33.785Z,53.83
2018-05-17T23:20:01.462Z,38.80
2018-05-17T23:22:36.736Z,52.67
2018-05-17T23:25:04.399Z,53.57
2018-05-17T23:27:32.118Z,36.33
2018-05-17T23:30:00.222Z,43.57
2018-05-17T23:32:27.959Z,41.97
2018-05-17T23:34:55.670Z,41.80
2018-05-17T23:37:23.325Z,41.97
2018-05-17T23:39:50.987Z,41.10
2018-05-17T23:42:18.709Z,45.57
2018-05-17T23:44:46.757Z,37.63
2018-05-17T23:47:14.417Z,37.57
2018-05-17T23:49:42.162Z,55.40
2018-05-17T23:52:09.826Z,47.57
2018-05-17T23:54:37.490Z,51.37
2018-05-17T23:57:05.207Z,37.10
2018-05-17T23:59:32.856Z,52.30
